Ponte Nova, Brazil
Current Conditions -  °F | °C
As of 1:00 PM on Saturday 25 Oct 2014 (Local Time) from SBIP Reporting Station
Scattered Clouds Scattered Clouds  
Wind Chill: 82°   Ceiling: Unl
Heat Index: 82°   Visibility: 6mi
Dew Point: 59°   Wind: 5mph
Humidity: 45%   Direction: 120°ESE
Pressure: 29.97"   Gusts: NA
Location:  20.41°S, 42.9°W
Report Text: SBIP 251500Z 12004KT 9999 SCT040 28/15 Q1015
Loading
Personal Weather Stations






























Interactive Weather Map
Tropical Storm Tracking
New forecast layout! Learn more

10-Day Weather Forecast

Advertisements
Track Severe Weather on mobile